createdAt,value
2023-04-24T00:02:28.505Z,76.02
2023-04-24T00:05:18.340Z,75.99
2023-04-24T00:08:03.773Z,76.20
2023-04-24T00:10:49.287Z,76.09
2023-04-24T00:13:34.384Z,76.21
2023-04-24T00:16:20.053Z,76.28
2023-04-24T00:19:06.957Z,76.64
2023-04-24T00:21:52.484Z,76.72
2023-04-24T00:24:37.759Z,76.88
2023-04-24T00:27:23.133Z,76.88
2023-04-24T00:30:09.069Z,76.64
2023-04-24T00:32:54.460Z,76.70
2023-04-24T00:35:39.774Z,77.09
2023-04-24T00:38:25.077Z,77.06
2023-04-24T00:41:10.449Z,77.22
2023-04-24T00:43:55.804Z,77.32
2023-04-24T00:46:41.609Z,77.24
2023-04-24T00:49:27.120Z,77.25
2023-04-24T00:52:13.520Z,77.24
2023-04-24T00:54:58.776Z,77.47
2023-04-24T00:57:45.047Z,77.94
2023-04-24T01:00:31.090Z,78.32
2023-04-24T01:03:16.689Z,78.05
2023-04-24T01:06:02.469Z,78.18
2023-04-24T01:08:48.971Z,78.26
2023-04-24T01:11:34.393Z,78.24
2023-04-24T01:14:19.574Z,78.26
2023-04-24T01:17:05.086Z,78.08
2023-04-24T01:19:50.565Z,78.58
2023-04-24T01:22:35.934Z,78.53
2023-04-24T01:25:21.560Z,78.85
2023-04-24T01:28:06.666Z,78.72
2023-04-24T01:30:52.092Z,78.38
2023-04-24T01:33:37.285Z,78.36
2023-04-24T01:36:23.784Z,78.74
2023-04-24T01:39:10.865Z,79.16
2023-04-24T01:41:57.275Z,79.04
2023-04-24T01:44:43.065Z,78.64
2023-04-24T01:47:29.322Z,79.18
2023-04-24T01:50:14.452Z,79.28
2023-04-24T01:52:59.786Z,79.17
2023-04-24T01:55:44.974Z,79.34
2023-04-24T01:58:30.403Z,79.21
2023-04-24T02:01:22.190Z,79.63
2023-04-24T02:04:09.070Z,79.03
2023-04-24T02:06:54.514Z,79.00
2023-04-24T02:09:39.813Z,79.48
2023-04-24T02:12:25.276Z,79.28
2023-04-24T02:15:11.201Z,80.04
2023-04-24T02:17:56.651Z,79.96
2023-04-24T02:20:41.982Z,79.66
2023-04-24T02:23:28.716Z,79.61
2023-04-24T02:26:14.124Z,79.69
2023-04-24T02:28:59.345Z,79.67
2023-04-24T02:31:44.748Z,79.79
2023-04-24T02:34:30.068Z,79.93
2023-04-24T02:37:15.406Z,80.55
2023-04-24T02:40:00.643Z,80.13
2023-04-24T02:42:46.139Z,80.11
2023-04-24T02:45:31.484Z,80.20
2023-04-24T02:48:16.714Z,80.07
2023-04-24T02:51:02.021Z,80.63
2023-04-24T02:53:47.200Z,80.73
2023-04-24T02:56:32.557Z,80.87
2023-04-24T02:59:17.910Z,80.44
2023-04-24T03:02:03.205Z,80.75
2023-04-24T03:04:51.428Z,81.01
2023-04-24T03:07:36.584Z,81.06
2023-04-24T03:10:23.812Z,81.34
2023-04-24T03:13:09.381Z,81.16
2023-04-24T03:15:55.212Z,81.02
2023-04-24T03:18:40.465Z,81.13
2023-04-24T03:21:25.951Z,81.37
2023-04-24T03:24:11.244Z,80.85
2023-04-24T03:26:57.916Z,81.39
2023-04-24T03:29:43.615Z,80.93
2023-04-24T03:32:29.334Z,81.28
2023-04-24T03:35:14.991Z,81.43
2023-04-24T03:38:00.266Z,80.95
2023-04-24T03:40:45.752Z,81.74
2023-04-24T03:43:30.870Z,81.44
2023-04-24T03:46:16.456Z,81.48
2023-04-24T03:49:01.795Z,81.60
2023-04-24T03:51:47.082Z,81.77
2023-04-24T03:54:32.535Z,81.95
2023-04-24T03:57:17.809Z,81.95
2023-04-24T04:00:05.227Z,81.98
2023-04-24T04:02:50.641Z,82.15
2023-04-24T04:05:35.872Z,82.18
2023-04-24T04:08:21.311Z,82.49
2023-04-24T04:11:06.585Z,82.41
2023-04-24T04:13:52.105Z,82.32
2023-04-24T04:16:37.784Z,82.33
2023-04-24T04:19:22.880Z,82.71
2023-04-24T04:22:09.130Z,82.93
2023-04-24T04:24:54.045Z,82.51
2023-04-24T04:27:39.920Z,83.00
2023-04-24T04:30:25.193Z,82.97
2023-04-24T04:33:11.816Z,83.18
2023-04-24T04:35:57.864Z,83.09
2023-04-24T04:38:44.125Z,83.25
2023-04-24T04:41:29.199Z,83.27
2023-04-24T04:44:15.110Z,83.78
2023-04-24T04:47:01.411Z,83.73
2023-04-24T04:49:46.926Z,83.73
2023-04-24T04:52:32.454Z,84.12
2023-04-24T04:55:17.745Z,84.09
2023-04-24T04:58:03.838Z,84.41
2023-04-24T05:00:49.618Z,84.45
2023-04-24T05:03:35.052Z,85.21
2023-04-24T05:06:21.604Z,85.41
2023-04-24T05:09:08.572Z,85.61
2023-04-24T05:11:54.459Z,85.28
2023-04-24T05:14:39.662Z,85.52
2023-04-24T05:17:25.085Z,85.29
2023-04-24T05:20:10.862Z,85.88
2023-04-24T05:22:56.445Z,86.25
2023-04-24T05:25:42.449Z,86.48
2023-04-24T05:28:29.574Z,87.12
2023-04-24T05:31:14.997Z,87.65
2023-04-24T05:34:00.455Z,88.57
2023-04-24T05:36:45.677Z,87.58
2023-04-24T05:39:30.905Z,88.18
2023-04-24T05:42:16.350Z,88.92
2023-04-24T05:45:01.745Z,89.08
2023-04-24T05:47:46.822Z,88.68
2023-04-24T05:50:32.511Z,89.02
2023-04-24T05:53:18.907Z,88.76
2023-04-24T05:56:04.180Z,88.95
2023-04-24T05:58:49.362Z,89.74
2023-04-24T06:01:34.823Z,89.17
2023-04-24T06:04:20.638Z,88.35
2023-04-24T06:07:06.339Z,89.34
2023-04-24T06:09:51.575Z,88.20
2023-04-24T06:12:37.609Z,88.41
2023-04-24T06:15:22.980Z,85.92
2023-04-24T06:18:08.764Z,85.37
2023-04-24T06:20:54.191Z,82.62
2023-04-24T06:23:39.414Z,80.54
2023-04-24T06:26:26.177Z,79.29
2023-04-24T06:29:11.710Z,78.49
2023-04-24T06:31:56.996Z,77.70
2023-04-24T06:34:43.324Z,75.84
2023-04-24T06:37:28.759Z,74.51
2023-04-24T06:40:14.298Z,73.72
2023-04-24T06:43:01.099Z,72.40
2023-04-24T06:45:46.375Z,73.05
2023-04-24T06:48:31.847Z,72.66
2023-04-24T06:51:18.643Z,71.95
2023-04-24T06:54:04.046Z,71.42
2023-04-24T06:56:50.810Z,70.00
2023-04-24T06:59:35.684Z,70.54
2023-04-24T07:02:21.386Z,70.13
2023-04-24T07:05:07.902Z,70.09
2023-04-24T07:07:53.694Z,69.92
2023-04-24T07:10:38.752Z,69.87
2023-04-24T07:13:24.665Z,69.37
2023-04-24T07:16:10.708Z,69.10
2023-04-24T07:18:55.834Z,69.09
2023-04-24T07:21:41.401Z,68.28
2023-04-24T07:24:27.023Z,67.80
2023-04-24T07:27:12.955Z,66.96
2023-04-24T07:29:58.353Z,66.69
2023-04-24T07:32:43.741Z,66.72
2023-04-24T07:35:28.907Z,66.65
2023-04-24T07:38:14.150Z,64.82
2023-04-24T07:40:59.573Z,65.58
2023-04-24T07:43:45.426Z,65.13
2023-04-24T07:46:31.617Z,64.88
2023-04-24T07:49:18.484Z,64.71
2023-04-24T07:52:05.182Z,64.17
2023-04-24T07:54:51.225Z,64.49
2023-04-24T07:57:37.317Z,64.05
2023-04-24T08:00:22.563Z,63.79
2023-04-24T08:03:08.086Z,61.95
2023-04-24T08:05:53.800Z,62.31
2023-04-24T08:08:39.384Z,62.65
2023-04-24T08:11:25.293Z,61.84
2023-04-24T08:14:10.733Z,61.48
2023-04-24T08:17:01.388Z,61.24
2023-04-24T08:19:49.280Z,61.78
2023-04-24T08:22:34.766Z,61.12
2023-04-24T08:25:20.267Z,60.48
2023-04-24T08:28:07.486Z,61.16
2023-04-24T08:30:55.984Z,59.00
2023-04-24T08:33:42.038Z,59.46
2023-04-24T08:36:36.041Z,59.32
2023-04-24T08:39:25.071Z,58.89
2023-04-24T08:42:12.252Z,59.04
2023-04-24T08:44:58.960Z,59.01
2023-04-24T08:47:45.221Z,57.48
2023-04-24T08:50:30.923Z,55.79
2023-04-24T08:53:16.859Z,54.16
2023-04-24T08:56:03.280Z,51.29
2023-04-24T08:58:49.191Z,50.90
2023-04-24T09:01:36.134Z,50.18
2023-04-24T09:04:23.274Z,49.69
2023-04-24T09:07:10.610Z,49.02
2023-04-24T09:09:56.082Z,46.29
2023-04-24T09:12:42.425Z,47.34
2023-04-24T09:15:27.735Z,45.36
2023-04-24T09:18:12.984Z,46.45
2023-04-24T09:21:04.061Z,46.48
2023-04-24T09:23:58.843Z,46.04
2023-04-24T09:26:44.299Z,46.37
2023-04-24T09:29:29.991Z,46.01
2023-04-24T09:32:23.580Z,46.75
2023-04-24T09:35:14.462Z,46.42
2023-04-24T09:37:59.502Z,46.47
2023-04-24T09:40:44.856Z,46.98
2023-04-24T09:43:30.917Z,45.98
2023-04-24T09:46:19.427Z,46.77
2023-04-24T09:49:13.496Z,46.05
2023-04-24T09:52:10.880Z,46.24
2023-04-24T09:54:56.242Z,48.04
2023-04-24T09:57:55.859Z,47.43
2023-04-24T10:00:41.347Z,47.08
2023-04-24T10:03:28.114Z,47.23
2023-04-24T10:06:14.014Z,48.11
2023-04-24T10:08:59.975Z,48.53
2023-04-24T10:11:47.000Z,48.19
2023-04-24T10:14:32.486Z,48.45
2023-04-24T10:17:18.384Z,48.47
2023-04-24T10:20:03.679Z,49.41
2023-04-24T10:22:51.296Z,49.15
2023-04-24T10:25:40.477Z,48.75
2023-04-24T10:28:26.015Z,49.92
2023-04-24T10:31:12.723Z,50.03
2023-04-24T10:33:59.570Z,48.72
2023-04-24T10:36:49.209Z,50.08
2023-04-24T10:39:34.646Z,49.93
2023-04-24T10:42:20.691Z,49.38
2023-04-24T10:45:07.002Z,49.05
2023-04-24T10:48:00.364Z,47.90
2023-04-24T10:50:53.680Z,47.63
2023-04-24T10:53:39.160Z,47.67
2023-04-24T10:56:24.508Z,48.33
2023-04-24T10:59:10.834Z,48.18
2023-04-24T11:01:56.572Z,48.35
2023-04-24T11:04:43.931Z,48.99
2023-04-24T11:07:29.358Z,49.30
2023-04-24T11:10:27.450Z,48.90
2023-04-24T11:13:15.859Z,50.22
2023-04-24T11:16:39.739Z,50.30
2023-04-24T11:19:27.199Z,50.47
2023-04-24T11:22:18.054Z,50.31
2023-04-24T11:25:05.325Z,50.78
2023-04-24T11:27:51.529Z,49.44
2023-04-24T11:30:41.092Z,50.01
2023-04-24T11:33:26.591Z,50.08
2023-04-24T11:36:12.079Z,50.63
2023-04-24T11:38:58.437Z,50.85
2023-04-24T11:41:43.860Z,50.67
2023-04-24T11:44:29.501Z,50.59
2023-04-24T11:47:14.802Z,51.02
2023-04-24T11:50:01.940Z,51.31
2023-04-24T11:52:49.860Z,50.92
2023-04-24T11:55:34.999Z,51.43
2023-04-24T11:58:22.787Z,51.40
2023-04-24T12:01:08.097Z,51.28
2023-04-24T12:04:01.065Z,50.78
2023-04-24T12:07:03.487Z,50.98
2023-04-24T12:09:52.622Z,50.32
2023-04-24T12:12:38.296Z,51.04
2023-04-24T12:15:24.432Z,51.71
2023-04-24T12:18:14.005Z,50.90
2023-04-24T12:21:19.151Z,51.46
2023-04-24T12:24:07.672Z,52.07
2023-04-24T12:26:54.546Z,52.35
2023-04-24T12:29:58.750Z,53.19
2023-04-24T12:32:49.083Z,52.81
2023-04-24T12:35:35.158Z,53.49
2023-04-24T12:38:25.435Z,53.39
2023-04-24T12:41:12.454Z,54.11
2023-04-24T12:43:57.576Z,53.81
2023-04-24T12:46:42.810Z,53.77
2023-04-24T12:49:29.180Z,53.36
2023-04-24T12:52:14.447Z,53.84
2023-04-24T12:55:01.617Z,53.78
2023-04-24T12:57:46.667Z,53.24
2023-04-24T13:00:32.166Z,53.48
2023-04-24T13:03:17.506Z,53.12
2023-04-24T13:06:02.894Z,53.46
2023-04-24T13:08:49.516Z,53.67
2023-04-24T13:11:34.419Z,54.04
2023-04-24T13:14:19.734Z,54.76
2023-04-24T13:17:05.986Z,55.49
2023-04-24T13:19:52.670Z,56.18
2023-04-24T13:22:38.477Z,56.28
2023-04-24T13:25:26.025Z,56.58
2023-04-24T13:28:11.232Z,57.15
2023-04-24T13:30:56.583Z,57.99
2023-04-24T13:33:42.416Z,57.70
2023-04-24T13:36:27.899Z,57.90
2023-04-24T13:39:13.670Z,58.38
2023-04-24T13:41:59.331Z,58.82
2023-04-24T13:44:44.511Z,59.15
2023-04-24T13:47:29.985Z,59.55
2023-04-24T13:50:16.090Z,60.01
2023-04-24T13:53:02.961Z,60.53
2023-04-24T13:55:48.748Z,60.74
2023-04-24T13:58:33.747Z,59.83
2023-04-24T14:01:19.310Z,59.45
2023-04-24T14:04:05.014Z,59.73
2023-04-24T14:06:50.467Z,59.90
2023-04-24T14:09:35.841Z,60.03
2023-04-24T14:12:22.083Z,60.27
2023-04-24T14:15:07.854Z,60.87
2023-04-24T14:17:52.892Z,61.54
2023-04-24T14:20:38.188Z,61.69
2023-04-24T14:23:23.622Z,62.61
2023-04-24T14:26:08.923Z,63.08
2023-04-24T14:29:01.049Z,63.52
2023-04-24T14:31:56.845Z,64.97
2023-04-24T14:34:42.670Z,67.38
2023-04-24T14:37:28.029Z,69.00
2023-04-24T14:40:29.770Z,70.87
2023-04-24T14:43:18.535Z,71.48
2023-04-24T14:46:05.781Z,73.03
2023-04-24T14:48:50.887Z,73.77
2023-04-24T14:51:39.319Z,74.38
2023-04-24T14:54:24.755Z,75.66
2023-04-24T14:57:10.029Z,75.33
2023-04-24T14:59:55.208Z,75.74
2023-04-24T15:02:43.293Z,75.89
2023-04-24T15:05:28.866Z,76.40
2023-04-24T15:08:15.006Z,76.91
2023-04-24T15:11:00.125Z,77.27
2023-04-24T15:13:48.229Z,78.15
2023-04-24T15:16:33.763Z,78.65
2023-04-24T15:19:18.686Z,81.56
2023-04-24T15:22:04.026Z,82.22
2023-04-24T15:24:49.543Z,82.21
2023-04-24T15:27:46.878Z,83.82
2023-04-24T15:30:32.392Z,84.49
2023-04-24T15:33:17.568Z,84.84
2023-04-24T15:36:02.692Z,84.81
2023-04-24T15:38:48.791Z,85.71
2023-04-24T15:41:33.887Z,86.00
2023-04-24T15:44:19.493Z,87.05
2023-04-24T15:47:04.998Z,87.86
2023-04-24T15:49:50.335Z,87.33
2023-04-24T15:52:36.056Z,86.40
2023-04-24T15:55:21.526Z,87.53
2023-04-24T15:58:06.538Z,88.04
2023-04-24T16:00:51.765Z,88.53
2023-04-24T16:03:37.136Z,89.46
2023-04-24T16:06:22.677Z,89.07
2023-04-24T16:09:08.765Z,88.59
2023-04-24T16:11:54.003Z,88.82
2023-04-24T16:14:39.709Z,89.43
2023-04-24T16:17:25.006Z,89.07
2023-04-24T16:20:10.903Z,89.97
2023-04-24T16:22:56.138Z,89.47
2023-04-24T16:25:41.192Z,89.20
2023-04-24T16:28:27.789Z,88.97
2023-04-24T16:31:12.867Z,88.65
2023-04-24T16:33:57.873Z,88.01
2023-04-24T16:36:43.389Z,87.98
2023-04-24T16:39:28.531Z,88.29
2023-04-24T16:42:14.816Z,88.29
2023-04-24T16:44:59.823Z,88.02
2023-04-24T16:47:45.171Z,88.22
2023-04-24T16:50:30.027Z,88.43
2023-04-24T16:53:15.489Z,88.17
2023-04-24T16:56:00.726Z,88.47
2023-04-24T16:58:46.025Z,88.27
2023-04-24T17:01:31.195Z,90.06
2023-04-24T17:04:16.559Z,90.61
2023-04-24T17:07:02.088Z,90.33
2023-04-24T17:09:47.549Z,90.90
2023-04-24T17:12:32.888Z,91.39
2023-04-24T17:15:18.009Z,90.77
2023-04-24T17:18:03.520Z,90.88
2023-04-24T17:20:48.858Z,90.96
2023-04-24T17:23:34.190Z,90.72
2023-04-24T17:26:19.459Z,90.97
2023-04-24T17:29:04.752Z,90.41
2023-04-24T17:31:49.860Z,90.74
2023-04-24T17:34:35.225Z,90.46
2023-04-24T17:37:23.202Z,90.15
2023-04-24T17:40:09.063Z,90.15
2023-04-24T17:42:54.700Z,90.17
2023-04-24T17:45:39.679Z,90.18
2023-04-24T17:48:25.287Z,90.35
2023-04-24T17:51:10.609Z,90.43
2023-04-24T17:53:55.556Z,90.42
2023-04-24T17:56:41.197Z,90.60
2023-04-24T17:59:26.751Z,90.85
2023-04-24T18:02:12.184Z,91.43
2023-04-24T18:04:57.764Z,92.18
2023-04-24T18:07:43.100Z,92.02
2023-04-24T18:10:31.616Z,92.23
2023-04-24T18:13:16.909Z,92.18
2023-04-24T18:16:02.237Z,92.03
2023-04-24T18:18:47.501Z,91.78
2023-04-24T18:21:33.137Z,91.96
2023-04-24T18:24:19.041Z,92.53
2023-04-24T18:27:04.254Z,91.92
2023-04-24T18:29:49.604Z,91.91
2023-04-24T18:32:35.995Z,92.17
2023-04-24T18:35:22.089Z,92.01
2023-04-24T18:38:07.491Z,91.86
2023-04-24T18:40:52.461Z,91.69
2023-04-24T18:43:37.820Z,92.43
2023-04-24T18:46:23.059Z,92.52
2023-04-24T18:49:08.450Z,92.53
2023-04-24T18:51:54.769Z,92.17
2023-04-24T18:54:41.121Z,92.12
2023-04-24T18:57:26.815Z,92.24
2023-04-24T19:00:12.422Z,92.12
2023-04-24T19:02:57.652Z,92.77
2023-04-24T19:05:42.775Z,92.84
2023-04-24T19:08:27.753Z,92.48
2023-04-24T19:11:13.337Z,92.73
2023-04-24T19:14:04.145Z,92.53
2023-04-24T19:16:50.097Z,93.37
2023-04-24T19:19:36.189Z,94.91
2023-04-24T19:22:21.638Z,94.95
2023-04-24T19:25:07.438Z,94.41
2023-04-24T19:27:52.642Z,94.07
2023-04-24T19:30:38.528Z,94.43
2023-04-24T19:33:23.641Z,94.39
2023-04-24T19:36:09.270Z,94.40
2023-04-24T19:38:55.169Z,94.39
2023-04-24T19:41:40.263Z,94.25
2023-04-24T19:44:25.697Z,94.23
2023-04-24T19:47:10.875Z,94.73
2023-04-24T19:49:56.687Z,95.49
2023-04-24T19:52:41.840Z,95.38
2023-04-24T19:55:26.977Z,95.15
2023-04-24T19:58:12.098Z,95.19
2023-04-24T20:00:58.216Z,95.07
2023-04-24T20:03:43.703Z,95.01
2023-04-24T20:06:29.094Z,94.70
2023-04-24T20:09:14.644Z,94.39
2023-04-24T20:12:00.164Z,94.39
2023-04-24T20:14:45.088Z,94.63
2023-04-24T20:17:30.873Z,94.81
2023-04-24T20:20:15.914Z,94.52
2023-04-24T20:23:01.281Z,94.72
2023-04-24T20:25:46.567Z,94.95
2023-04-24T20:28:31.985Z,94.73
2023-04-24T20:31:17.706Z,95.22
2023-04-24T20:34:03.526Z,95.60
2023-04-24T20:36:49.756Z,95.55
2023-04-24T20:39:34.971Z,95.47
2023-04-24T20:42:20.609Z,95.34
2023-04-24T20:45:06.641Z,95.42
2023-04-24T20:47:52.046Z,95.08
2023-04-24T20:50:41.891Z,95.11
2023-04-24T20:53:27.103Z,95.59
2023-04-24T20:56:12.445Z,95.40
2023-04-24T20:58:57.838Z,95.56
2023-04-24T21:01:44.858Z,95.49
2023-04-24T21:04:32.254Z,96.24
2023-04-24T21:07:17.835Z,96.53
2023-04-24T21:10:03.013Z,96.21
2023-04-24T21:12:48.492Z,96.31
2023-04-24T21:15:33.756Z,96.03
2023-04-24T21:18:19.034Z,95.93
2023-04-24T21:21:04.516Z,96.16
2023-04-24T21:23:49.919Z,96.06
2023-04-24T21:26:35.663Z,95.64
2023-04-24T21:29:21.206Z,95.56
2023-04-24T21:32:06.437Z,95.61
2023-04-24T21:34:51.663Z,95.53
2023-04-24T21:37:39.207Z,95.96
2023-04-24T21:40:24.905Z,96.30
2023-04-24T21:43:10.146Z,96.09
2023-04-24T21:45:56.719Z,96.12
2023-04-24T21:48:42.268Z,96.03
2023-04-24T21:51:28.442Z,95.90
2023-04-24T21:54:14.199Z,95.73
2023-04-24T21:56:59.629Z,95.61
2023-04-24T21:59:45.769Z,95.46
2023-04-24T22:03:27.468Z,95.77
2023-04-24T22:06:12.649Z,95.83
2023-04-24T22:08:57.808Z,96.20
2023-04-24T22:11:43.014Z,96.82
2023-04-24T22:14:28.372Z,96.91
2023-04-24T22:17:15.373Z,96.72
2023-04-24T22:20:01.559Z,96.56
2023-04-24T22:22:47.398Z,96.56
2023-04-24T22:25:32.766Z,96.47
2023-04-24T22:28:17.877Z,96.89
2023-04-24T22:31:03.548Z,97.21
2023-04-24T22:33:49.516Z,97.11
2023-04-24T22:36:34.884Z,97.22
2023-04-24T22:39:20.150Z,97.21
2023-04-24T22:42:05.656Z,97.15
2023-04-24T22:44:51.463Z,97.14
2023-04-24T22:47:36.832Z,96.99
2023-04-24T22:50:22.675Z,97.02
2023-04-24T22:53:08.039Z,97.15
2023-04-24T22:55:53.372Z,97.07
2023-04-24T22:58:38.670Z,96.69
2023-04-24T23:01:24.726Z,96.92
2023-04-24T23:04:09.894Z,96.69
2023-04-24T23:06:55.255Z,96.54
2023-04-24T23:09:40.699Z,96.69
2023-04-24T23:12:25.929Z,96.75
2023-04-24T23:15:14.642Z,96.55
2023-04-24T23:17:59.669Z,96.70
2023-04-24T23:20:46.084Z,96.98
2023-04-24T23:23:31.481Z,97.06
2023-04-24T23:26:16.783Z,97.41
2023-04-24T23:29:01.969Z,97.68
2023-04-24T23:31:47.303Z,97.54
2023-04-24T23:34:34.006Z,97.67
2023-04-24T23:37:19.162Z,97.51
2023-04-24T23:40:11.677Z,97.86
2023-04-24T23:43:06.200Z,97.74
2023-04-24T23:45:52.191Z,97.94
2023-04-24T23:48:37.504Z,98.29
2023-04-24T23:51:23.062Z,98.52
2023-04-24T23:54:08.050Z,98.79
2023-04-24T23:56:53.290Z,99.14
2023-04-24T23:59:38.664Z,98.64
